Time;durP1;ratioP1;P1;durP2;ratioP2;P2;SDS_P1;SDS_P2;PMS_P1;PMS_P2;Temp;Humidity;BMP_temperature;BMP_pressure;BME280_temperature;BME280_humidity;BME280_pressure;Samples;Min_cycle;Max_cycle;Signal;HPM_P1;HPM_P2
2023/08/09 00:01:19;;;;;;;1.92;1.55;;;;;;;17.33;100.00;100338.78;5030173;28;20074;-80
2023/08/09 00:03:45;;;;;;;1.80;1.55;;;;;;;17.30;100.00;100342.66;5052252;28;20036;-82
2023/08/09 00:06:11;;;;;;;4.30;1.50;;;;;;;17.29;100.00;100345.53;5034998;28;21232;-82
2023/08/09 00:08:36;;;;;;;3.20;1.40;;;;;;;17.27;100.00;100348.41;5063735;28;20044;-82
2023/08/09 00:11:02;;;;;;;1.65;1.40;;;;;;;17.25;100.00;100358.44;5053120;28;20060;-82
2023/08/09 00:13:28;;;;;;;2.40;1.75;;;;;;;17.26;100.00;100359.28;5050398;28;20029;-82
2023/08/09 00:15:54;;;;;;;1.85;1.40;;;;;;;17.25;100.00;100369.13;5033615;28;20044;-81
2023/08/09 00:18:20;;;;;;;6.28;1.42;;;;;;;17.25;100.00;100363.78;5045514;28;20480;-82
2023/08/09 00:20:46;;;;;;;1.50;1.40;;;;;;;17.26;100.00;100372.63;5038802;28;20889;-82
2023/08/09 00:23:14;;;;;;;2.30;1.52;;;;;;;17.26;100.00;100377.97;5013352;28;20043;-81
2023/08/09 00:25:41;;;;;;;2.85;1.65;;;;;;;17.25;100.00;100376.31;5044166;28;20025;-82
2023/08/09 00:28:07;;;;;;;3.28;1.73;;;;;;;17.23;100.00;100379.19;5030182;28;20029;-82
2023/08/09 00:30:33;;;;;;;2.28;1.75;;;;;;;17.22;100.00;100385.53;5045394;28;20047;-81
2023/08/09 00:32:58;;;;;;;1.80;1.70;;;;;;;17.22;100.00;100388.19;5044214;28;20025;-81
2023/08/09 00:35:24;;;;;;;2.70;2.10;;;;;;;17.21;100.00;100387.41;5048063;28;20017;-82
2023/08/09 00:37:50;;;;;;;4.97;2.00;;;;;;;17.20;100.00;100379.56;5047141;28;20028;-82
2023/08/09 00:40:16;;;;;;;4.32;2.22;;;;;;;17.15;100.00;100385.47;5020432;28;20467;-82
2023/08/09 00:42:42;;;;;;;3.97;2.38;;;;;;;17.14;100.00;100383.00;5045437;28;20040;-82
2023/08/09 00:45:09;;;;;;;3.85;2.67;;;;;;;17.13;100.00;100373.31;5029104;28;20025;-81
2023/08/09 00:47:36;;;;;;;3.58;2.22;;;;;;;17.07;100.00;100372.22;5041465;28;20064;-81
2023/08/09 00:50:02;;;;;;;3.05;2.25;;;;;;;17.04;100.00;100370.72;5047287;28;20052;-81
2023/08/09 00:52:29;;;;;;;3.40;2.55;;;;;;;17.01;100.00;100372.97;5020698;28;20419;-82
2023/08/09 00:54:57;;;;;;;2.22;1.95;;;;;;;16.96;100.00;100370.88;5024880;28;20590;-81
2023/08/09 00:57:22;;;;;;;3.60;2.13;;;;;;;16.92;100.00;100365.06;5024398;28;20425;-81
2023/08/09 00:59:49;;;;;;;2.20;2.00;;;;;;;16.92;100.00;100365.06;5049964;28;20031;-82
2023/08/09 01:02:15;;;;;;;2.38;2.10;;;;;;;16.93;100.00;100365.91;5021690;28;20106;-82
2023/08/09 01:04:41;;;;;;;2.97;2.20;;;;;;;16.93;100.00;100358.72;5026085;28;20422;-82
2023/08/09 01:07:47;;;;;;;4.68;2.28;;;;;;;16.99;100.00;100367.81;5024570;28;20036;-82
2023/08/09 01:10:29;;;;;;;3.83;2.55;;;;;;;16.98;100.00;100364.31;5029708;28;20052;-81
2023/08/09 01:13:01;;;;;;;3.72;2.40;;;;;;;16.97;100.00;100361.84;5039694;28;20029;-81
2023/08/09 01:15:27;;;;;;;4.15;2.38;;;;;;;16.94;100.00;100368.38;5027698;28;20036;-82
2023/08/09 01:17:55;;;;;;;2.03;1.80;;;;;;;16.95;100.00;100363.84;5026677;28;20059;-81
2023/08/09 01:20:22;;;;;;;2.30;1.92;;;;;;;16.94;100.00;100356.88;5047727;28;20089;-82
2023/08/09 01:23:09;;;;;;;2.10;1.90;;;;;;;16.96;100.00;100357.53;5038492;28;20037;-82
2023/08/09 01:25:35;;;;;;;2.30;2.10;;;;;;;16.95;100.00;100355.84;5044739;28;20536;-81
2023/08/09 01:28:03;;;;;;;5.70;2.20;;;;;;;16.96;100.00;100349.50;5040534;28;20044;-81
2023/08/09 01:30:29;;;;;;;7.30;2.08;;;;;;;16.95;100.00;100351.34;5038355;28;20025;-82
2023/08/09 01:32:56;;;;;;;2.30;2.10;;;;;;;16.92;100.00;100349.06;5047049;28;20052;-82
2023/08/09 01:35:23;;;;;;;2.92;1.90;;;;;;;16.96;100.00;100349.50;5049516;28;20206;-81
2023/08/09 01:37:58;;;;;;;3.50;1.88;;;;;;;16.96;100.00;100342.31;5027518;28;20186;-82
2023/08/09 01:40:25;;;;;;;2.03;1.80;;;;;;;16.93;100.00;100341.88;5025906;28;20120;-82
2023/08/09 01:42:51;;;;;;;2.58;1.70;;;;;;;16.91;100.00;100343.91;5006241;28;20033;-81
2023/08/09 01:45:19;;;;;;;2.00;1.90;;;;;;;16.89;100.00;100333.41;5018099;28;20052;-82
2023/08/09 01:47:45;;;;;;;1.80;1.70;;;;;;;16.90;100.00;100344.94;5007226;28;20964;-81
2023/08/09 01:50:26;;;;;;;1.80;1.70;;;;;;;16.93;100.00;100344.56;5047140;28;20025;-80
2023/08/09 01:52:55;;;;;;;2.15;1.90;;;;;;;16.86;100.00;100349.81;5030730;28;20037;-81
2023/08/09 01:55:24;;;;;;;3.95;1.80;;;;;;;16.86;100.00;100355.97;5017048;28;20059;-81
2023/08/09 01:57:50;;;;;;;3.10;1.90;;;;;;;16.86;100.00;100363.16;5027491;28;20105;-81
2023/08/09 02:00:19;;;;;;;2.97;2.08;;;;;;;16.88;100.00;100360.31;5020662;28;20036;-82
2023/08/09 02:02:46;;;;;;;2.10;1.88;;;;;;;16.88;100.00;100363.81;5029934;28;20475;-81
2023/08/09 02:05:12;;;;;;;2.03;1.90;;;;;;;16.86;100.00;100368.50;5047835;28;20041;-81
2023/08/09 02:07:39;;;;;;;3.58;2.03;;;;;;;16.85;100.00;100369.53;5045895;28;20833;-81
2023/08/09 02:10:06;;;;;;;3.60;2.05;;;;;;;16.86;100.00;100369.34;5032892;28;20032;-80
2023/08/09 02:12:32;;;;;;;4.10;1.80;;;;;;;16.85;100.00;100373.00;5027814;28;20102;-80
2023/08/09 02:14:59;;;;;;;2.15;1.95;;;;;;;16.85;100.00;100369.53;5048443;28;20033;-81
2023/08/09 02:17:25;;;;;;;2.08;1.88;;;;;;;16.83;100.00;100367.00;5026494;28;20112;-81
2023/08/09 02:19:53;;;;;;;2.35;2.03;;;;;;;16.84;100.00;100367.84;5026846;28;20040;-80
2023/08/09 02:22:19;;;;;;;2.53;2.13;;;;;;;16.82;100.00;100372.53;5038294;28;20055;-80
2023/08/09 02:24:46;;;;;;;4.63;2.17;;;;;;;16.82;100.00;100361.84;5028549;28;20036;-81
2023/08/09 02:27:12;;;;;;;3.92;2.15;;;;;;;16.80;100.00;100362.03;5032971;28;20074;-80
2023/08/09 02:29:38;;;;;;;3.08;2.42;;;;;;;16.79;100.00;100368.41;5032042;28;20031;-81
2023/08/09 02:32:04;;;;;;;2.92;2.10;;;;;;;16.77;100.00;100362.41;5019973;28;20037;-82
2023/08/09 02:34:30;;;;;;;5.95;2.20;;;;;;;16.77;100.00;100365.09;5031561;28;20020;-82
2023/08/09 02:36:56;;;;;;;3.15;2.17;;;;;;;16.77;100.00;100366.94;5031245;28;20378;-82
2023/08/09 02:39:22;;;;;;;2.35;2.15;;;;;;;16.75;100.00;100372.47;5049246;28;20413;-80
2023/08/09 02:41:48;;;;;;;5.55;2.88;;;;;;;16.74;100.00;100366.31;5049131;28;20442;-80
2023/08/09 02:44:14;;;;;;;5.70;2.38;;;;;;;16.76;100.00;100371.47;5043279;28;20040;-80
2023/08/09 02:46:40;;;;;;;3.40;2.50;;;;;;;16.74;100.00;100365.47;5029931;28;20043;-80
2023/08/09 02:49:06;;;;;;;2.33;2.13;;;;;;;16.76;100.00;100371.47;5068756;28;20032;-81
2023/08/09 02:51:32;;;;;;;3.50;1.95;;;;;;;16.77;100.00;100362.41;5032974;28;20555;-81
2023/08/09 02:54:04;;;;;;;2.65;2.20;;;;;;;16.79;100.00;100362.25;5040910;28;20069;-80
2023/08/09 02:56:32;;;;;;;11.88;2.42;;;;;;;16.80;100.00;100367.38;5026730;28;20028;-80
2023/08/09 02:58:59;;;;;;;2.63;2.28;;;;;;;16.79;100.00;100359.56;5066942;28;20074;-82
2023/08/09 03:01:25;;;;;;;2.42;2.22;;;;;;;16.80;100.00;100353.22;5048730;28;20020;-81
2023/08/09 03:03:54;;;;;;;2.75;2.38;;;;;;;16.78;100.00;100348.09;5043083;28;20029;-81
2023/08/09 03:06:22;;;;;;;8.48;2.50;;;;;;;16.76;100.00;100355.44;5021958;28;20021;-82
2023/08/09 03:08:52;;;;;;;7.68;2.65;;;;;;;16.76;100.00;100358.13;5038924;28;20056;-80
2023/08/09 03:11:23;;;;;;;5.60;2.80;;;;;;;16.72;100.00;100349.66;5064408;28;20141;-82
2023/08/09 03:13:50;;;;;;;7.22;2.92;;;;;;;16.70;100.00;100353.53;5043778;28;20110;-81
2023/08/09 03:16:16;;;;;;;10.05;2.70;;;;;;;16.69;100.00;100349.22;5050979;28;20043;-81
2023/08/09 03:18:42;;;;;;;5.88;2.50;;;;;;;16.70;100.00;100354.38;5032016;28;20053;-81
2023/08/09 03:21:08;;;;;;;2.72;2.53;;;;;;;16.70;100.00;100354.38;5038593;28;20025;-82
2023/08/09 03:23:35;;;;;;;2.83;2.63;;;;;;;16.72;100.00;100354.97;5049343;28;20679;-82
2023/08/09 03:26:02;;;;;;;3.15;2.50;;;;;;;16.71;100.00;100360.50;5031916;28;20037;-81
2023/08/09 03:28:28;;;;;;;3.53;2.95;;;;;;;16.70;100.00;100358.88;5016219;28;20082;-81
2023/08/09 03:30:55;;;;;;;6.25;2.72;;;;;;;16.69;100.00;100362.56;5035417;28;20648;-81
2023/08/09 03:33:22;;;;;;;3.00;2.50;;;;;;;16.70;100.00;100356.19;5053050;28;20031;-81
2023/08/09 03:35:48;;;;;;;5.18;2.65;;;;;;;16.71;100.00;100366.69;5012756;28;20470;-82
2023/08/09 03:38:15;;;;;;;3.42;2.63;;;;;;;16.73;100.00;100363.81;5040393;28;20056;-81
2023/08/09 03:40:41;;;;;;;3.03;2.58;;;;;;;16.72;100.00;100367.53;5050928;28;20027;-81
2023/08/09 03:43:07;;;;;;;3.03;2.50;;;;;;;16.72;100.00;100371.00;5037966;28;20470;-81
2023/08/09 03:45:34;;;;;;;5.25;2.40;;;;;;;16.75;100.00;100375.16;5044818;28;20041;-81
2023/08/09 03:48:00;;;;;;;3.35;2.65;;;;;;;16.76;100.00;100376.78;5036830;28;20043;-81
2023/08/09 03:50:26;;;;;;;4.75;2.72;;;;;;;16.75;100.00;100380.50;5049259;28;20040;-81
2023/08/09 03:52:53;;;;;;;3.38;2.70;;;;;;;16.79;100.00;100375.59;5015698;28;20036;-81
2023/08/09 03:55:19;;;;;;;3.13;2.80;;;;;;;16.78;100.00;100372.09;5032029;28;20074;-82
2023/08/09 03:57:45;;;;;;;3.17;2.70;;;;;;;16.78;100.00;100384.63;5020153;28;20036;-81
2023/08/09 04:00:17;;;;;;;3.42;2.85;;;;;;;16.78;100.00;100385.44;5033296;28;20032;-81
2023/08/09 04:02:45;;;;;;;4.65;2.83;;;;;;;16.79;100.00;100384.44;5049281;28;20445;-81
2023/08/09 04:05:12;;;;;;;3.38;2.58;;;;;;;16.81;100.00;100378.91;5019189;28;20031;-81
2023/08/09 04:07:38;;;;;;;2.58;2.38;;;;;;;16.81;100.00;100379.75;5049821;28;20039;-81
2023/08/09 04:10:09;;;;;;;3.55;2.47;;;;;;;16.81;100.00;100381.56;5040331;28;20029;-81
2023/08/09 04:12:35;;;;;;;3.03;2.63;;;;;;;16.82;100.00;100383.22;5037703;28;20470;-81
2023/08/09 04:15:04;;;;;;;3.13;2.80;;;;;;;16.82;100.00;100384.06;5032940;28;20033;-81
2023/08/09 04:17:31;;;;;;;2.53;2.33;;;;;;;16.82;100.00;100386.72;5057320;28;20470;-81
2023/08/09 04:19:58;;;;;;;2.42;2.22;;;;;;;16.85;100.00;100391.69;5067019;28;20078;-81
2023/08/09 04:22:24;;;;;;;3.63;2.92;;;;;;;16.87;100.00;100396.84;5067038;28;20487;-81
2023/08/09 04:24:50;;;;;;;3.08;2.85;;;;;;;16.85;100.00;100391.69;5028531;28;20035;-80
2023/08/09 04:27:16;;;;;;;4.22;2.88;;;;;;;16.84;100.00;100392.72;5049163;28;20032;-80
2023/08/09 04:29:42;;;;;;;4.68;2.53;;;;;;;16.82;100.00;100392.06;5035060;28;20552;-82
2023/08/09 04:32:08;;;;;;;3.50;2.67;;;;;;;16.79;100.00;100388.94;5033606;28;20385;-81
2023/08/09 04:34:34;;;;;;;6.97;2.95;;;;;;;16.77;100.00;100397.13;5032982;28;20029;-81
2023/08/09 04:37:00;;;;;;;4.40;2.60;;;;;;;16.77;100.00;100398.97;5014785;28;20329;-81
2023/08/09 04:39:26;;;;;;;5.43;3.28;;;;;;;16.76;100.00;100395.47;5065135;28;20656;-82
2023/08/09 04:41:51;;;;;;;6.85;2.80;;;;;;;16.72;100.00;100402.22;5052929;28;20701;-81
2023/08/09 04:44:17;;;;;;;2.95;2.58;;;;;;;16.68;100.00;100396.41;5018749;28;20024;-81
2023/08/09 04:46:44;;;;;;;2.83;2.47;;;;;;;16.65;100.00;100394.13;5019391;28;20043;-81
2023/08/09 04:49:12;;;;;;;3.78;2.78;;;;;;;16.64;100.00;100397.81;5037529;28;20039;-82
2023/08/09 04:51:37;;;;;;;6.97;3.42;;;;;;;16.61;100.00;100398.19;5033843;28;20036;-81
2023/08/09 04:54:03;;;;;;;6.10;2.72;;;;;;;16.59;100.00;100403.69;5032694;28;20028;-81
2023/08/09 04:56:29;;;;;;;3.72;2.78;;;;;;;16.58;100.00;100406.56;5050808;28;20121;-81
2023/08/09 04:58:55;;;;;;;3.28;2.80;;;;;;;16.59;100.00;100397.53;5031314;28;20033;-81
2023/08/09 05:01:21;;;;;;;3.78;2.70;;;;;;;16.58;100.00;100399.34;5042219;28;20186;-81
2023/08/09 05:03:47;;;;;;;3.33;3.00;;;;;;;16.60;100.00;100400.00;5044796;28;20053;-81
2023/08/09 05:06:12;;;;;;;3.65;3.28;;;;;;;16.60;100.00;100399.19;5032872;28;20021;-81
2023/08/09 05:08:38;;;;;;;3.22;2.90;;;;;;;16.62;100.00;100405.16;5027466;28;20100;-81
2023/08/09 05:11:04;;;;;;;3.20;2.90;;;;;;;16.65;100.00;100404.78;5045706;28;20029;-81
2023/08/09 05:13:30;;;;;;;4.40;3.13;;;;;;;16.66;100.00;100405.63;5029063;28;20128;-81
2023/08/09 05:15:55;;;;;;;2.85;2.58;;;;;;;16.68;100.00;100415.09;5063630;28;20021;-81
2023/08/09 05:18:21;;;;;;;3.35;2.63;;;;;;;16.73;100.00;100419.88;5033866;28;20395;-81
2023/08/09 05:20:47;;;;;;;3.22;2.92;;;;;;;16.73;100.00;100412.69;5047548;28;20064;-81
2023/08/09 05:23:13;;;;;;;3.17;2.72;;;;;;;16.77;100.00;100415.81;5046436;28;20027;-81
2023/08/09 05:25:39;;;;;;;3.40;3.10;;;;;;;16.79;100.00;100416.47;5025673;28;20025;-81
2023/08/09 05:28:05;;;;;;;5.03;2.78;;;;;;;16.82;100.00;100408.06;5036970;28;20029;-81
2023/08/09 05:30:30;;;;;;;4.85;2.85;;;;;;;16.81;100.00;100413.59;5033182;28;20435;-82
2023/08/09 05:32:58;;;;;;;5.53;2.83;;;;;;;16.81;100.00;100409.09;5024904;28;20180;-81
2023/08/09 05:35:26;;;;;;;11.30;3.72;;;;;;;16.83;100.00;100414.25;5043512;28;20139;-81
2023/08/09 05:37:52;;;;;;;6.10;3.70;;;;;;;16.80;100.00;100411.94;5025240;28;20356;-81
2023/08/09 05:40:18;;;;;;;4.93;2.97;;;;;;;16.80;100.00;100417.28;5028005;28;20026;-81
2023/08/09 05:42:44;;;;;;;3.92;3.47;;;;;;;16.80;100.00;100417.28;5043630;28;20048;-81
2023/08/09 05:45:10;;;;;;;4.30;3.25;;;;;;;16.81;100.00;100418.94;5021439;28;20036;-81
2023/08/09 05:47:36;;;;;;;3.92;3.55;;;;;;;16.85;100.00;100423.72;5041542;28;20040;-81
2023/08/09 05:50:02;;;;;;;4.47;3.53;;;;;;;16.86;100.00;100419.22;5041834;28;20072;-80
2023/08/09 05:52:28;;;;;;;5.45;3.53;;;;;;;16.89;100.00;100426.00;5045049;28;20440;-80
2023/08/09 05:54:53;;;;;;;5.68;3.53;;;;;;;16.89;100.00;100429.53;5042289;28;20548;-81
2023/08/09 05:57:19;;;;;;;3.42;3.13;;;;;;;16.92;100.00;100434.47;5046835;28;20490;-81
2023/08/09 05:59:45;;;;;;;4.90;3.88;;;;;;;16.93;100.00;100438.78;5028913;28;20041;-81
2023/08/09 06:02:11;;;;;;;6.22;4.07;;;;;;;16.95;100.00;100433.28;5039308;28;20121;-81
2023/08/09 06:04:37;;;;;;;9.07;4.07;;;;;;;16.96;100.00;100441.09;5042789;28;20115;-82
2023/08/09 06:07:04;;;;;;;4.47;4.07;;;;;;;16.97;100.00;100432.09;5025996;28;20115;-81
2023/08/09 06:09:30;;;;;;;5.28;4.28;;;;;;;16.98;100.00;100436.41;5044276;28;20035;-81
2023/08/09 06:11:56;;;;;;;8.55;4.55;;;;;;;16.98;100.00;100439.06;5022499;28;20084;-82
2023/08/09 06:14:22;;;;;;;5.40;4.28;;;;;;;17.02;100.00;100442.22;5042424;28;20030;-81
2023/08/09 06:16:48;;;;;;;7.55;4.57;;;;;;;17.01;100.00;100437.88;5043083;28;20040;-81
2023/08/09 06:19:14;;;;;;;6.10;4.45;;;;;;;17.03;100.00;100437.66;5041213;28;20041;-81
2023/08/09 06:21:41;;;;;;;5.25;4.65;;;;;;;17.06;100.00;100439.97;5026398;28;20474;-81
2023/08/09 06:24:07;;;;;;;8.95;5.07;;;;;;;17.07;100.00;100442.44;5044519;28;20470;-81
2023/08/09 06:26:33;;;;;;;6.82;4.78;;;;;;;17.09;100.00;100436.94;5027637;28;20067;-81
2023/08/09 06:29:00;;;;;;;6.53;5.18;;;;;;;17.10;100.00;100442.09;5040550;28;20053;-81
2023/08/09 06:31:26;;;;;;;9.80;5.97;;;;;;;17.11;100.00;100446.44;5056288;28;20032;-81
2023/08/09 06:33:54;;;;;;;8.15;5.35;;;;;;;17.15;100.00;100452.25;5016588;28;20106;-81
2023/08/09 06:36:20;;;;;;;6.57;5.55;;;;;;;17.16;100.00;100456.56;5039056;28;21666;-81
2023/08/09 06:38:45;;;;;;;10.32;6.72;;;;;;;17.16;100.00;100459.25;5041716;28;20041;-81
2023/08/09 06:41:11;;;;;;;6.78;5.55;;;;;;;17.18;100.00;100456.38;5033665;28;20097;-81
2023/08/09 06:43:37;;;;;;;8.27;6.00;;;;;;;17.19;100.00;100456.19;5044883;28;20029;-81
2023/08/09 06:46:03;;;;;;;7.78;6.70;;;;;;;17.19;100.00;100461.53;5043159;28;20021;-81
2023/08/09 06:48:31;;;;;;;14.27;6.72;;;;;;;17.21;100.00;100456.00;5031482;28;20391;-82
2023/08/09 06:50:57;;;;;;;9.57;6.43;;;;;;;17.25;100.00;100457.28;5012314;28;20028;-81
2023/08/09 06:53:23;;;;;;;8.52;6.50;;;;;;;17.28;100.00;100464.09;5046112;28;20029;-81
2023/08/09 06:55:50;;;;;;;8.25;5.78;;;;;;;17.31;100.00;100461.84;5043900;28;20497;-81
2023/08/09 06:58:16;;;;;;;11.77;6.13;;;;;;;17.35;100.00;100462.31;5024358;28;20025;-81
2023/08/09 07:00:42;;;;;;;7.32;6.28;;;;;;;17.35;100.00;100465.81;5026214;28;20492;-81
2023/08/09 07:03:07;;;;;;;6.90;5.97;;;;;;;17.35;100.00;100463.16;5044689;28;20127;-81
2023/08/09 07:05:33;;;;;;;10.55;6.13;;;;;;;17.38;100.00;100467.28;5046107;28;20017;-81
2023/08/09 07:07:59;;;;;;;9.27;6.75;;;;;;;17.39;100.00;100463.56;5023980;28;20022;-81
2023/08/09 07:10:25;;;;;;;9.15;5.57;;;;;;;17.40;100.00;100467.94;5050600;28;20060;-82
2023/08/09 07:12:51;;;;;;;9.65;5.47;;;;;;;17.40;100.00;100473.28;5043260;28;20078;-81
2023/08/09 07:15:17;;;;;;;8.80;5.75;;;;;;;17.45;100.00;100478.03;5040268;28;20025;-81
2023/08/09 07:17:42;;;;;;;6.00;5.00;;;;;;;17.47;100.00;100473.34;5022087;28;20059;-81
2023/08/09 07:20:11;;;;;;;8.75;5.13;;;;;;;17.50;100.00;100480.97;5048644;28;20024;-81
2023/08/09 07:22:39;;;;;;;7.97;4.82;;;;;;;17.54;100.00;100484.91;5060949;28;20482;-81
2023/08/09 07:25:07;;;;;;;5.20;4.70;;;;;;;17.57;100.00;100486.38;5034168;28;20064;-81
2023/08/09 07:27:34;;;;;;;7.97;5.22;;;;;;;17.59;100.00;100490.53;5063246;28;20028;-81
2023/08/09 07:30:00;;;;;;;7.78;5.40;;;;;;;17.59;100.00;100487.03;5052617;28;20040;-81
2023/08/09 07:32:26;;;;;;;4.97;4.50;;;;;;;17.63;100.00;100490.97;5026187;28;20026;-81
2023/08/09 07:34:52;;;;;;;6.25;4.97;;;;;;;17.65;100.00;100485.41;5025529;28;20047;-81
2023/08/09 07:37:18;;;;;;;7.85;4.88;;;;;;;17.70;100.00;100494.53;5040991;28;20467;-81
2023/08/09 07:39:44;;;;;;;6.28;4.75;;;;;;;17.78;100.00;100492.75;5064725;28;20033;-81
2023/08/09 07:42:10;;;;;;;5.53;4.10;;;;;;;17.85;100.00;100488.31;5037651;28;20052;-81
2023/08/09 07:44:36;;;;;;;8.43;4.40;;;;;;;17.96;100.00;100498.47;5039545;28;20414;-81
2023/08/09 07:47:02;;;;;;;4.93;3.58;;;;;;;17.98;100.00;100491.09;5033817;28;20037;-81
2023/08/09 07:49:27;;;;;;;6.28;4.07;;;;;;;18.03;100.00;100493.19;5039188;28;20043;-81
2023/08/09 07:51:54;;;;;;;5.75;3.35;;;;;;;18.12;100.00;100503.78;5043051;28;20040;-81
2023/08/09 07:54:19;;;;;;;3.33;2.97;;;;;;;18.19;100.00;100504.66;5040972;28;20056;-80
2023/08/09 07:56:45;;;;;;;4.97;3.30;;;;;;;18.22;100.00;100510.44;5045471;28;20059;-81
2023/08/09 07:59:11;;;;;;;8.05;3.40;;;;;;;18.23;100.00;100513.97;5064162;28;20074;-81
2023/08/09 08:01:37;;;;;;;4.05;3.00;;;;;;;18.19;100.00;100516.19;5032574;28;20040;-80
2023/08/09 08:04:03;;;;;;;3.38;3.08;;;;;;;18.22;100.00;100520.31;5035542;28;20167;-80
2023/08/09 08:06:29;;;;;;;3.83;3.20;;;;;;;18.22;100.00;100517.63;5065084;28;20035;-80
2023/08/09 08:08:57;;;;;;;3.20;2.90;;;;;;;18.23;100.00;100519.31;5039649;28;20029;-80
2023/08/09 08:11:23;;;;;;;7.43;3.20;;;;;;;18.28;100.00;100522.25;5020042;28;20043;-80
2023/08/09 08:13:49;;;;;;;3.90;3.17;;;;;;;18.28;100.00;100521.41;5035056;28;20522;-80
2023/08/09 08:16:15;;;;;;;3.20;2.90;;;;;;;18.29;100.00;100526.56;5051159;28;21162;-80
2023/08/09 08:18:41;;;;;;;4.40;3.40;;;;;;;18.30;100.00;100528.19;5066532;28;20119;-80
2023/08/09 08:21:08;;;;;;;3.95;3.55;;;;;;;18.34;100.00;100531.31;5044528;28;20136;-81
2023/08/09 08:23:34;;;;;;;3.90;3.60;;;;;;;18.38;100.00;100535.25;5037600;28;20040;-81
2023/08/09 08:26:00;;;;;;;6.43;3.20;;;;;;;18.41;100.00;100528.72;5051039;28;20137;-81
2023/08/09 08:28:26;;;;;;;4.63;3.50;;;;;;;18.49;100.00;100525.88;5032745;28;20032;-81
2023/08/09 08:30:52;;;;;;;6.82;3.88;;;;;;;18.59;100.00;100530.88;5030321;28;20521;-81
2023/08/09 08:33:18;;;;;;;3.10;2.88;;;;;;;18.67;100.00;100524.53;5026588;28;20059;-81
2023/08/09 08:35:48;;;;;;;5.97;3.20;;;;;;;18.78;100.00;100526.69;5053101;28;20036;-81
2023/08/09 08:38:15;;;;;;;3.53;3.00;;;;;;;18.86;100.00;100527.56;5033069;28;20053;-81
2023/08/09 08:40:43;;;;;;;2.50;2.30;;;;;;;18.92;100.00;100529.44;5025845;28;20059;-80
2023/08/09 08:43:08;;;;;;;4.63;2.63;;;;;;;18.94;100.00;100524.69;4981800;28;20539;-82
2023/08/09 08:45:38;;;;;;;3.15;2.60;;;;;;;18.97;100.00;100529.66;5011891;28;20065;-81
2023/08/09 08:48:08;;;;;;;3.45;2.50;;;;;;;19.01;100.00;100525.56;5035189;28;20119;-82
2023/08/09 08:50:40;;;;;;;3.85;3.10;;;;;;;19.03;100.00;100528.88;5070835;28;20047;-81
2023/08/09 08:53:06;;;;;;;3.17;2.58;;;;;;;19.00;100.00;100521.22;5061216;28;20096;-81
2023/08/09 08:55:33;;;;;;;2.53;2.20;;;;;;;19.06;100.00;100527.66;5028139;28;20040;-81
2023/08/09 08:57:58;;;;;;;4.95;2.00;;;;;;;19.06;100.00;100523.09;5035435;28;20043;-82
2023/08/09 09:00:24;;;;;;;4.07;1.88;;;;;;;19.17;100.00;100529.81;5032744;28;20036;-82
2023/08/09 09:02:50;;;;;;;6.10;2.65;;;;;;;19.23;100.00;100530.00;5014165;28;20046;-81
2023/08/09 09:05:17;;;;;;;3.67;2.10;;;;;;;19.26;100.00;100537.66;5029547;28;20029;-81
2023/08/09 09:07:50;;;;;;;3.97;2.17;;;;;;;19.27;100.00;100531.28;5048172;28;20134;-82
2023/08/09 09:10:19;;;;;;;5.65;2.05;;;;;;;19.31;100.00;100532.53;5038214;28;20024;-82
2023/08/09 09:12:45;;;;;;;3.92;2.15;;;;;;;19.36;100.00;100534.59;5061324;28;20478;-82
2023/08/09 09:15:11;;;;;;;2.67;2.10;;;;;;;19.40;100.00;100528.63;5040884;28;20063;-82
2023/08/09 09:17:42;;;;;;;2.65;1.90;;;;;;;19.49;100.00;100531.97;5032840;28;20021;-81
2023/08/09 09:20:29;;;;;;;2.35;2.10;;;;;;;19.54;100.00;100540.22;5038382;28;20056;-82
2023/08/09 09:22:56;;;;;;;1.80;1.70;;;;;;;19.55;100.00;100533.00;5063977;28;20064;-82
2023/08/09 09:25:23;;;;;;;2.15;1.65;;;;;;;19.60;100.00;100538.59;5041808;28;20065;-82
2023/08/09 09:27:54;;;;;;;1.73;1.60;;;;;;;19.64;100.00;100539.00;5048952;28;20039;-81
2023/08/09 09:30:24;;;;;;;2.17;1.98;;;;;;;19.64;100.00;100542.53;5051725;28;20039;-81
2023/08/09 09:32:51;;;;;;;3.17;2.10;;;;;;;19.66;100.00;100540.47;5044274;28;20040;-81
2023/08/09 09:35:21;;;;;;;2.63;1.50;;;;;;;19.69;100.00;100539.22;5008984;28;20032;-82
2023/08/09 09:37:51;;;;;;;2.45;1.55;;;;;;;19.72;100.00;100538.81;5041064;28;20040;-82
2023/08/09 09:40:35;;;;;;;2.13;1.50;;;;;;;19.75;100.00;100542.97;5040728;28;20489;-82
2023/08/09 09:43:01;;;;;;;5.63;1.50;;;;;;;19.75;100.00;100534.94;5039541;28;20051;-82
2023/08/09 09:45:29;;;;;;;1.38;1.15;;;;;;;19.79;100.00;100550.41;5048272;28;20056;-82
2023/08/09 09:47:57;;;;;;;4.68;1.25;;;;;;;19.83;100.00;100543.59;5041987;28;20501;-81
2023/08/09 09:50:26;;;;;;;1.98;1.05;;;;;;;19.91;100.00;100539.88;5022223;28;20060;-81
2023/08/09 09:52:52;;;;;;;1.55;1.25;;;;;;;19.96;100.00;100539.28;5031892;28;20119;-82
2023/08/09 09:55:20;;;;;;;4.05;1.50;;;;;;;20.01;100.00;100541.34;5051070;28;20154;-82
2023/08/09 09:57:47;;;;;;;4.68;1.27;;;;;;;20.03;100.00;100542.00;5030097;28;20025;-82
2023/08/09 10:00:20;;;;;;;2.83;1.35;;;;;;;20.04;100.00;100546.31;5059943;28;20094;-81
2023/08/09 10:02:48;;;;;;;4.50;1.27;;;;;;;20.07;100.00;100543.22;5031173;28;20500;-82
2023/08/09 10:05:21;;;;;;;1.73;1.05;;;;;;;20.16;100.00;100541.19;5050744;28;20082;-80
2023/08/09 10:07:48;;;;;;;1.15;1.05;;;;;;;20.15;100.00;100543.03;5042008;28;20040;-81
2023/08/09 10:10:16;;;;;;;1.77;1.23;;;;;;;20.23;100.00;100541.19;4973556;28;20037;-82
2023/08/09 10:12:47;;;;;;;3.28;1.10;;;;;;;20.32;100.00;100543.44;5037910;28;20041;-81
2023/08/09 10:15:16;;;;;;;3.08;1.30;;;;;;;20.38;100.00;100543.66;5033961;28;20029;-82
2023/08/09 10:17:45;;;;;;;3.20;1.38;;;;;;;20.41;100.00;100532.50;5038916;28;20044;-83
2023/08/09 10:20:13;;;;;;;1.05;0.70;;;;;;;20.45;100.00;100539.94;5061984;28;20032;-82
2023/08/09 10:22:39;;;;;;;3.30;1.00;;;;;;;20.49;100.00;100534.97;5048896;28;20024;-82
2023/08/09 10:25:06;;;;;;;1.90;0.90;;;;;;;20.51;100.00;100535.59;5031217;28;20407;-82
2023/08/09 10:27:50;;;;;;;6.53;0.90;;;;;;;20.60;100.00;100538.88;5017224;28;20037;-82
2023/08/09 10:30:19;;;;;;;2.83;1.00;;;;;;;20.68;100.00;100538.69;5032459;28;20024;-82
2023/08/09 10:32:49;;;;;;;1.42;0.90;;;;;;;20.79;100.00;100534.50;5031990;28;20119;-82
2023/08/09 10:35:39;;;;;;;1.90;1.30;;;;;;;20.88;100.00;100540.47;5064628;28;20039;-82
2023/08/09 10:38:06;;;;;;;1.90;1.08;;;;;;;20.91;100.00;100539.25;5002900;28;20502;-82
2023/08/09 10:40:35;;;;;;;2.05;1.00;;;;;;;20.98;100.00;100534.69;5043696;28;20037;-82
2023/08/09 10:43:02;;;;;;;3.72;0.90;;;;;;;20.98;100.00;100541.91;5036181;28;20572;-82
2023/08/09 10:45:31;;;;;;;3.33;0.73;;;;;;;21.04;100.00;100544.59;5043000;28;20033;-82
2023/08/09 10:48:47;;;;;;;1.55;0.80;;;;;;;21.07;100.00;100541.47;5015197;28;20056;-82
2023/08/09 10:51:13;;;;;;;1.88;0.60;;;;;;;21.09;100.00;100541.25;4932551;29;20039;-81
2023/08/09 10:54:00;;;;;;;1.23;0.70;;;;;;;21.13;100.00;100530.94;4948114;28;20130;-81
2023/08/09 10:56:34;;;;;;;0.98;0.70;;;;;;;21.19;100.00;100522.84;5025688;28;20080;-81
2023/08/09 10:59:05;;;;;;;1.58;0.88;;;;;;;21.22;100.00;100526.13;5053559;28;20109;-82
2023/08/09 11:01:32;;;;;;;1.73;0.90;;;;;;;21.19;100.00;100525.53;5060583;28;20032;-82
2023/08/09 11:03:58;;;;;;;1.38;0.82;;;;;;;21.18;100.00;100529.25;5045651;28;20673;-83
2023/08/09 11:06:35;;;;;;;1.17;0.85;;;;;;;21.20;100.00;100531.72;5018002;28;20037;-82
2023/08/09 11:09:12;;;;;;;1.50;0.77;;;;;;;21.24;100.00;100532.13;5032245;28;20528;-81
2023/08/09 11:11:42;;;;;;;2.17;0.68;;;;;;;21.26;100.00;100528.16;5029951;28;20044;-81
2023/08/09 11:14:10;;;;;;;1.52;0.80;;;;;;;21.30;100.00;100533.94;5059621;28;20510;-81
2023/08/09 11:16:37;;;;;;;1.40;0.80;;;;;;;21.31;100.00;100532.91;5066965;28;20394;-80
2023/08/09 11:19:14;;;;;;;1.98;0.80;;;;;;;21.38;100.00;100541.78;5048479;28;20068;-82